createdAt,value
2019-03-06T00:01:18.467Z,23.13
2019-03-06T00:03:49.061Z,22.27
2019-03-06T00:06:20.783Z,24.53
2019-03-06T00:08:51.436Z,23.57
2019-03-06T00:11:22.090Z,23.33
2019-03-06T00:13:52.720Z,18.33
2019-03-06T00:16:23.200Z,20.07
2019-03-06T00:18:53.582Z,21.57
2019-03-06T00:21:24.253Z,21.53
2019-03-06T00:23:54.871Z,23.67
2019-03-06T00:26:25.383Z,21.50
2019-03-06T00:28:56.598Z,28.10
2019-03-06T00:31:27.116Z,18.23
2019-03-06T00:33:57.661Z,18.73
2019-03-06T00:36:29.224Z,21.37
2019-03-06T00:38:59.747Z,23.20
2019-03-06T00:41:38.754Z,21.47
2019-03-06T00:44:09.261Z,18.70
2019-03-06T00:46:39.943Z,22.67
2019-03-06T00:49:10.492Z,18.67
2019-03-06T00:51:41.196Z,16.73
2019-03-06T00:54:11.946Z,16.33
2019-03-06T00:56:42.363Z,16.87
2019-03-06T00:59:12.985Z,18.57
2019-03-06T01:01:43.520Z,23.30
2019-03-06T01:04:14.053Z,18.77
2019-03-06T01:06:44.532Z,24.30
2019-03-06T01:09:15.306Z,22.43
2019-03-06T01:11:45.951Z,24.50
2019-03-06T01:14:16.621Z,23.93
2019-03-06T01:16:47.232Z,17.07
2019-03-06T01:19:17.730Z,23.27
2019-03-06T01:21:48.225Z,27.27
2019-03-06T01:24:18.892Z,29.57
2019-03-06T01:26:49.557Z,19.87
2019-03-06T01:29:20.247Z,11.10
2019-03-06T01:31:50.722Z,11.37
2019-03-06T01:34:34.522Z,8.53
2019-03-06T01:37:24.111Z,8.33
2019-03-06T01:40:12.367Z,7.27
2019-03-06T01:42:54.955Z,4.27
2019-03-06T01:45:25.471Z,4.23
2019-03-06T01:47:56.112Z,3.70
2019-03-06T01:50:26.690Z,3.57
2019-03-06T01:52:57.376Z,4.63
2019-03-06T01:55:27.805Z,2.57
2019-03-06T01:57:58.574Z,3.57
2019-03-06T02:00:29.447Z,3.33
2019-03-06T02:03:00.121Z,3.17
2019-03-06T02:05:31.111Z,2.57
2019-03-06T02:08:02.922Z,3.07
2019-03-06T02:10:33.641Z,2.77
2019-03-06T02:13:04.888Z,2.37
2019-03-06T02:15:35.527Z,2.43
2019-03-06T02:18:06.263Z,2.47
2019-03-06T02:20:36.956Z,1.17
2019-03-06T02:23:07.571Z,3.70
2019-03-06T02:25:38.105Z,3.47
2019-03-06T02:28:08.573Z,5.03
2019-03-06T02:30:39.213Z,4.90
2019-03-06T02:33:09.841Z,4.70
2019-03-06T02:35:40.782Z,5.27
2019-03-06T02:38:11.228Z,3.67
2019-03-06T02:40:41.943Z,6.07
2019-03-06T02:43:12.347Z,3.63
2019-03-06T02:45:42.960Z,4.87
2019-03-06T02:48:13.636Z,5.10
2019-03-06T02:50:44.239Z,5.77
2019-03-06T02:53:14.899Z,7.93
2019-03-06T02:55:45.516Z,5.73
2019-03-06T02:58:20.877Z,6.67
2019-03-06T03:01:10.651Z,5.90
2019-03-06T03:04:00.236Z,6.23
2019-03-06T03:06:35.895Z,6.30
2019-03-06T03:09:15.497Z,6.97
2019-03-06T03:11:46.445Z,7.37
2019-03-06T03:14:17.082Z,7.90
2019-03-06T03:16:47.575Z,8.27
2019-03-06T03:19:18.171Z,8.00
2019-03-06T03:21:48.696Z,7.67
2019-03-06T03:24:19.229Z,8.53
2019-03-06T03:26:49.685Z,11.57
2019-03-06T03:29:20.213Z,9.77
2019-03-06T03:31:50.658Z,10.97
2019-03-06T03:34:21.414Z,10.70
2019-03-06T03:36:52.232Z,10.73
2019-03-06T03:39:22.668Z,13.60
2019-03-06T03:41:53.412Z,12.27
2019-03-06T03:44:24.084Z,13.73
2019-03-06T03:46:54.704Z,11.90
2019-03-06T03:49:27.715Z,13.30
2019-03-06T03:51:57.474Z,12.13
2019-03-06T03:54:27.993Z,9.27
2019-03-06T03:56:58.417Z,12.00
2019-03-06T03:59:29.443Z,9.70
2019-03-06T04:01:59.988Z,10.97
2019-03-06T04:04:30.703Z,9.20
2019-03-06T04:07:01.262Z,8.87
2019-03-06T04:09:31.785Z,9.80
2019-03-06T04:12:02.518Z,10.50
2019-03-06T04:14:33.020Z,9.63
2019-03-06T04:17:04.780Z,11.97
2019-03-06T04:19:35.758Z,11.83
2019-03-06T04:22:06.383Z,14.13
2019-03-06T04:24:36.909Z,12.80
2019-03-06T04:27:07.515Z,11.20
2019-03-06T04:29:38.203Z,12.97
2019-03-06T04:32:08.911Z,12.43
2019-03-06T04:34:40.773Z,14.10
2019-03-06T04:37:11.446Z,13.77
2019-03-06T04:39:41.925Z,12.00
2019-03-06T04:42:12.386Z,13.07
2019-03-06T04:44:42.945Z,13.27
2019-03-06T04:47:13.425Z,14.60
2019-03-06T04:49:52.430Z,12.47
2019-03-06T04:52:16.067Z,15.40
2019-03-06T04:54:46.741Z,15.80
2019-03-06T04:57:17.579Z,12.97
2019-03-06T04:59:47.980Z,14.17
2019-03-06T05:02:18.525Z,12.43
2019-03-06T05:04:48.745Z,12.23
2019-03-06T05:07:19.373Z,10.60
2019-03-06T05:09:49.852Z,11.80
2019-03-06T05:12:20.332Z,12.27
2019-03-06T05:27:56.114Z,14.23
2019-03-06T05:30:28.051Z,13.40
2019-03-06T05:32:59.714Z,15.37
2019-03-06T05:35:46.217Z,18.23
2019-03-06T05:38:22.002Z,15.23
2019-03-06T05:40:52.869Z,15.80
2019-03-06T05:43:23.553Z,14.67
2019-03-06T05:45:54.311Z,19.07
2019-03-06T05:48:24.777Z,20.90
2019-03-06T05:50:55.286Z,18.87
2019-03-06T05:53:25.844Z,16.10
2019-03-06T05:55:56.485Z,17.87
2019-03-06T05:58:26.925Z,17.33
2019-03-06T06:00:57.449Z,15.77
2019-03-06T06:03:28.080Z,14.10
2019-03-06T06:05:58.573Z,15.67
2019-03-06T06:08:29.185Z,14.90
2019-03-06T06:10:59.581Z,18.83
2019-03-06T06:13:31.050Z,16.67
2019-03-06T06:16:04.338Z,17.53
2019-03-06T06:18:34.794Z,20.63
2019-03-06T06:21:24.482Z,20.00
2019-03-06T06:23:59.374Z,21.43
2019-03-06T06:26:30.145Z,22.80
2019-03-06T06:29:00.872Z,24.07
2019-03-06T06:31:31.660Z,23.43
2019-03-06T06:34:02.336Z,26.73
2019-03-06T06:36:33.099Z,28.03
2019-03-06T06:39:05.331Z,23.97
2019-03-06T06:41:36.061Z,25.47
2019-03-06T06:44:06.825Z,21.53
2019-03-06T06:46:37.252Z,21.40
2019-03-06T06:49:10.792Z,18.27
2019-03-06T06:52:05.727Z,16.67
2019-03-06T06:55:14.864Z,18.63
2019-03-06T06:58:31.060Z,16.97
2019-03-06T07:01:45.818Z,16.23
2019-03-06T07:04:55.652Z,19.17
2019-03-06T07:07:35.402Z,13.17
2019-03-06T07:10:25.258Z,13.97
2019-03-06T07:13:14.753Z,11.50
2019-03-06T07:16:04.314Z,14.20
2019-03-06T07:18:54.010Z,13.63
2019-03-06T07:21:34.413Z,14.10
2019-03-06T07:24:24.098Z,10.47
2019-03-06T07:27:21.091Z,11.80
2019-03-06T07:30:10.666Z,12.50
2019-03-06T07:33:03.682Z,11.80
2019-03-06T07:36:14.426Z,11.27
2019-03-06T07:38:45.076Z,11.60
2019-03-06T07:41:31.094Z,12.03
2019-03-06T07:44:29.539Z,11.43
2019-03-06T07:47:13.784Z,12.43
2019-03-06T07:50:03.358Z,11.77
2019-03-06T07:52:53.176Z,14.80
2019-03-06T07:55:42.832Z,16.13
2019-03-06T07:58:51.780Z,13.40
2019-03-06T08:01:25.428Z,15.60
2019-03-06T08:04:00.745Z,16.17
2019-03-06T08:06:31.619Z,14.27
2019-03-06T08:09:07.180Z,13.73
2019-03-06T08:11:44.185Z,15.07
2019-03-06T08:14:33.848Z,10.10
2019-03-06T08:17:11.105Z,11.20
2019-03-06T08:20:00.826Z,10.50
2019-03-06T08:22:39.776Z,11.20
2019-03-06T08:25:32.312Z,12.43
2019-03-06T08:28:02.948Z,10.73
2019-03-06T08:30:37.155Z,12.53
2019-03-06T08:33:07.818Z,14.97
2019-03-06T08:35:38.453Z,12.93
2019-03-06T08:38:09.057Z,11.47
2019-03-06T08:40:39.641Z,17.93
2019-03-06T08:43:10.272Z,13.63
2019-03-06T08:45:50.065Z,13.57
2019-03-06T08:48:33.124Z,13.23
2019-03-06T08:51:09.302Z,12.23
2019-03-06T08:53:44.211Z,12.37
2019-03-06T08:56:33.878Z,14.30
2019-03-06T08:59:23.522Z,17.20
2019-03-06T09:02:15.731Z,14.40
2019-03-06T09:04:59.552Z,16.30
2019-03-06T09:07:38.465Z,16.73
2019-03-06T09:10:29.552Z,17.60
2019-03-06T09:13:06.800Z,14.10
2019-03-06T09:15:46.502Z,11.50
2019-03-06T09:18:24.645Z,11.43
2019-03-06T09:21:14.400Z,15.13
2019-03-06T09:24:04.132Z,12.20
2019-03-06T09:26:42.134Z,12.23
2019-03-06T09:29:31.711Z,11.60
2019-03-06T09:32:21.448Z,12.93
2019-03-06T09:35:03.428Z,11.67
2019-03-06T09:37:53.152Z,10.43
2019-03-06T09:40:40.622Z,10.40
2019-03-06T09:43:19.002Z,11.50
2019-03-06T09:45:58.615Z,11.17
2019-03-06T09:48:48.387Z,10.13
2019-03-06T09:51:38.056Z,10.30
2019-03-06T09:54:17.421Z,11.73
2019-03-06T09:57:07.509Z,10.50
2019-03-06T09:59:52.738Z,9.67
2019-03-06T10:02:42.445Z,9.73
2019-03-06T10:05:24.842Z,9.80
2019-03-06T10:08:10.404Z,9.13
2019-03-06T10:10:57.074Z,9.07
2019-03-06T10:13:34.342Z,8.13
2019-03-06T10:16:24.190Z,8.67
2019-03-06T10:19:13.999Z,14.17
2019-03-06T10:21:44.718Z,13.07
2019-03-06T10:24:15.448Z,12.93
2019-03-06T10:26:46.095Z,9.80
2019-03-06T10:29:16.913Z,11.50
2019-03-06T10:31:47.695Z,16.37
2019-03-06T10:34:18.421Z,11.23
2019-03-06T10:36:49.401Z,16.90
2019-03-06T10:39:20.174Z,15.43
2019-03-06T10:41:50.826Z,19.10
2019-03-06T10:44:26.550Z,15.90
2019-03-06T10:46:53.722Z,22.80
2019-03-06T10:49:24.222Z,19.87
2019-03-06T10:51:54.874Z,18.33
2019-03-06T10:54:25.553Z,23.07
2019-03-06T10:56:56.235Z,19.43
2019-03-06T10:59:26.796Z,18.77
2019-03-06T11:01:57.492Z,24.83
2019-03-06T11:04:32.497Z,25.43
2019-03-06T11:07:03.246Z,25.13
2019-03-06T11:09:34.329Z,23.03
2019-03-06T11:12:06.418Z,23.70
2019-03-06T11:14:38.442Z,22.93
2019-03-06T11:17:09.524Z,29.80
2019-03-06T11:19:40.650Z,24.63
2019-03-06T11:22:11.160Z,27.87
2019-03-06T11:24:42.052Z,27.83
2019-03-06T11:27:12.826Z,25.33
2019-03-06T11:29:43.425Z,31.77
2019-03-06T11:32:14.190Z,30.20
2019-03-06T11:34:45.021Z,35.73
2019-03-06T11:37:16.168Z,28.67
2019-03-06T11:39:46.822Z,34.00
2019-03-06T11:42:17.333Z,38.10
2019-03-06T11:44:47.824Z,33.80
2019-03-06T11:47:18.371Z,34.80
2019-03-06T11:50:01.622Z,31.00
2019-03-06T11:52:34.757Z,35.53
2019-03-06T11:55:07.313Z,34.20
2019-03-06T11:57:38.874Z,38.60
2019-03-06T12:00:18.802Z,34.87
2019-03-06T12:02:50.041Z,36.47
2019-03-06T12:05:22.262Z,40.17
2019-03-06T12:07:53.048Z,32.70
2019-03-06T12:10:24.718Z,37.13
2019-03-06T12:12:55.810Z,38.50
2019-03-06T12:15:26.503Z,41.20
2019-03-06T12:17:57.318Z,41.23
2019-03-06T12:20:48.454Z,38.83
2019-03-06T12:23:19.230Z,35.43
2019-03-06T12:25:51.658Z,38.90
2019-03-06T12:28:22.709Z,36.87
2019-03-06T12:30:53.515Z,41.20
2019-03-06T12:33:29.568Z,41.80
2019-03-06T12:36:00.203Z,35.00
2019-03-06T12:38:30.760Z,42.23
2019-03-06T12:41:02.342Z,40.73
2019-03-06T12:43:34.981Z,35.47
2019-03-06T12:46:23.322Z,38.83
2019-03-06T12:48:58.658Z,39.17
2019-03-06T12:51:39.810Z,43.03
2019-03-06T12:54:10.534Z,39.20
2019-03-06T12:56:41.101Z,38.60
2019-03-06T12:59:11.940Z,124.30
2019-03-06T13:01:42.602Z,93.67
2019-03-06T13:04:13.902Z,47.57
2019-03-06T13:06:47.079Z,40.00
2019-03-06T13:09:19.398Z,43.97
2019-03-06T13:11:50.208Z,44.87
2019-03-06T13:14:20.996Z,43.03
2019-03-06T13:16:52.204Z,36.67
2019-03-06T13:19:22.958Z,44.97
2019-03-06T13:21:53.631Z,42.37
2019-03-06T13:24:24.190Z,42.07
2019-03-06T13:26:57.987Z,41.60
2019-03-06T13:29:28.614Z,40.57
2019-03-06T13:31:59.355Z,44.23
2019-03-06T13:34:37.051Z,41.63
2019-03-06T13:37:07.642Z,41.00
2019-03-06T13:39:38.573Z,47.60
2019-03-06T13:42:09.177Z,43.33
2019-03-06T13:44:39.887Z,41.90
2019-03-06T13:47:10.579Z,39.60
2019-03-06T13:49:44.372Z,42.37
2019-03-06T13:52:15.345Z,37.00
2019-03-06T13:54:49.416Z,46.27
2019-03-06T13:57:20.243Z,42.23
2019-03-06T13:59:50.850Z,41.83
2019-03-06T14:02:21.712Z,44.97
2019-03-06T14:04:55.261Z,39.00
2019-03-06T14:07:25.895Z,38.40
2019-03-06T14:09:58.729Z,40.27
2019-03-06T14:12:29.403Z,42.17
2019-03-06T14:15:01.615Z,39.37
2019-03-06T14:17:35.075Z,43.50
2019-03-06T14:20:06.418Z,40.20
2019-03-06T14:22:37.530Z,35.73
2019-03-06T14:25:08.830Z,36.20
2019-03-06T14:27:39.731Z,34.57
2019-03-06T14:30:12.537Z,40.07
2019-03-06T14:32:43.276Z,33.60
2019-03-06T14:35:13.936Z,37.57
2019-03-06T14:37:44.835Z,44.87
2019-03-06T14:40:21.110Z,30.30
2019-03-06T14:42:51.954Z,33.60
2019-03-06T14:45:23.382Z,32.47
2019-03-06T14:47:55.090Z,33.90
2019-03-06T14:50:25.840Z,34.37
2019-03-06T14:52:56.610Z,30.07
2019-03-06T14:55:27.483Z,29.37
2019-03-06T14:57:58.122Z,31.53
2019-03-06T15:00:28.725Z,35.53
2019-03-06T15:02:59.351Z,33.33
2019-03-06T15:05:30.044Z,32.17
2019-03-06T15:08:00.820Z,37.33
2019-03-06T15:10:31.448Z,37.30
2019-03-06T15:13:02.291Z,32.10
2019-03-06T15:15:32.950Z,35.93
2019-03-06T15:18:10.366Z,36.93
2019-03-06T15:20:37.371Z,35.17
2019-03-06T15:23:08.215Z,36.87
2019-03-06T15:25:38.848Z,39.13
2019-03-06T15:28:09.482Z,41.83
2019-03-06T15:30:41.130Z,43.63
2019-03-06T15:33:11.993Z,48.57
2019-03-06T15:35:42.813Z,51.90
2019-03-06T15:38:13.511Z,63.50
2019-03-06T15:40:44.173Z,72.70
2019-03-06T15:43:16.729Z,70.23
2019-03-06T15:45:47.384Z,80.77
2019-03-06T15:48:18.077Z,73.73
2019-03-06T15:50:48.960Z,78.50
2019-03-06T15:53:24.379Z,75.70
2019-03-06T15:55:52.105Z,85.47
2019-03-06T15:58:22.862Z,78.97
2019-03-06T16:00:53.502Z,88.30
2019-03-06T16:03:24.327Z,86.33
2019-03-06T16:05:54.999Z,84.30
2019-03-06T16:08:25.694Z,92.60
2019-03-06T16:10:56.429Z,85.70
2019-03-06T16:13:27.311Z,90.00
2019-03-06T16:15:58.112Z,91.80
2019-03-06T16:18:28.953Z,97.80
2019-03-06T16:21:00.928Z,95.80
2019-03-06T16:23:31.732Z,107.30
2019-03-06T16:26:05.870Z,116.97
2019-03-06T16:28:36.793Z,115.10
2019-03-06T16:31:07.551Z,127.03
2019-03-06T16:33:38.973Z,128.63
2019-03-06T16:36:09.801Z,125.03
2019-03-06T16:38:40.488Z,130.53
2019-03-06T16:41:11.113Z,142.23
2019-03-06T16:43:42.114Z,138.97
2019-03-06T16:46:13.162Z,152.80
2019-03-06T16:48:43.899Z,160.30
2019-03-06T16:51:15.109Z,166.40
2019-03-06T16:53:45.994Z,168.63
2019-03-06T16:56:16.693Z,162.93
2019-03-06T16:58:47.915Z,173.17
2019-03-06T17:01:18.733Z,174.77
2019-03-06T17:03:49.781Z,194.17
2019-03-06T17:06:22.920Z,201.07
2019-03-06T17:08:53.744Z,216.70
2019-03-06T17:11:24.851Z,201.77
2019-03-06T17:13:55.525Z,232.23
2019-03-06T17:16:26.603Z,213.50
2019-03-06T17:18:59.626Z,231.33
2019-03-06T17:21:30.318Z,236.90
2019-03-06T17:24:01.393Z,234.77
2019-03-06T17:26:32.369Z,248.57
2019-03-06T17:29:13.677Z,249.87
2019-03-06T17:31:46.063Z,237.23
2019-03-06T17:34:17.050Z,282.60
2019-03-06T17:36:47.702Z,251.17
2019-03-06T17:39:18.867Z,258.57
2019-03-06T17:41:49.690Z,256.43
2019-03-06T17:44:20.412Z,253.43
2019-03-06T17:46:51.543Z,274.20
2019-03-06T17:49:23.342Z,270.13
2019-03-06T17:51:54.161Z,261.10
2019-03-06T17:54:24.772Z,268.33
2019-03-06T17:56:55.514Z,301.00
2019-03-06T17:59:26.349Z,279.00
2019-03-06T18:01:57.076Z,272.20
2019-03-06T18:04:28.906Z,277.30
2019-03-06T18:06:59.579Z,265.97
2019-03-06T18:09:31.740Z,262.17
2019-03-06T18:12:02.756Z,273.40
2019-03-06T18:14:33.582Z,286.63
2019-03-06T18:17:04.534Z,295.43
2019-03-06T18:19:35.353Z,289.73
2019-03-06T18:22:07.264Z,300.63
2019-03-06T18:24:39.973Z,303.00
2019-03-06T18:27:11.070Z,296.07
2019-03-06T18:29:41.911Z,280.77
2019-03-06T18:32:14.303Z,292.30
2019-03-06T18:34:45.241Z,327.00
2019-03-06T18:37:15.916Z,306.37
2019-03-06T18:39:46.529Z,307.47
2019-03-06T18:42:17.334Z,340.50
2019-03-06T18:44:48.115Z,322.97
2019-03-06T18:47:18.896Z,310.63
2019-03-06T18:49:51.040Z,318.20
2019-03-06T18:52:21.683Z,307.97
2019-03-06T18:54:52.610Z,294.80
2019-03-06T18:57:24.786Z,269.77
2019-03-06T18:59:55.720Z,325.23
2019-03-06T19:02:26.360Z,317.40
2019-03-06T19:04:57.088Z,324.30
2019-03-06T19:07:27.784Z,298.10
2019-03-06T19:09:58.781Z,306.07
2019-03-06T19:12:31.042Z,312.53
2019-03-06T19:15:03.268Z,294.27
2019-03-06T19:17:35.073Z,305.03
2019-03-06T19:20:06.211Z,310.73
2019-03-06T19:22:41.234Z,308.00
2019-03-06T19:25:12.450Z,292.13
2019-03-06T19:27:43.526Z,312.63
2019-03-06T19:30:16.797Z,300.90
2019-03-06T19:32:48.648Z,326.13
2019-03-06T19:35:20.464Z,306.00
2019-03-06T19:37:51.511Z,306.03
2019-03-06T19:40:23.961Z,287.70
2019-03-06T19:42:57.762Z,281.70
2019-03-06T19:45:29.222Z,270.63
2019-03-06T19:48:01.563Z,265.67
2019-03-06T19:50:32.264Z,271.30
2019-03-06T19:53:02.950Z,284.67
2019-03-06T19:55:34.318Z,269.23
2019-03-06T19:58:06.932Z,257.97
2019-03-06T20:00:38.015Z,278.20
2019-03-06T20:03:09.205Z,265.17
2019-03-06T20:05:40.531Z,251.90
2019-03-06T20:08:12.589Z,275.23
2019-03-06T20:10:43.652Z,271.37
2019-03-06T20:13:14.992Z,304.53
2019-03-06T20:15:45.713Z,282.17
2019-03-06T20:18:16.640Z,274.37
2019-03-06T20:20:47.479Z,263.87
2019-03-06T20:23:18.321Z,240.67
2019-03-06T20:25:50.279Z,274.83
2019-03-06T20:28:21.111Z,274.17
2019-03-06T20:30:51.807Z,247.27
2019-03-06T20:33:22.788Z,254.40
2019-03-06T20:35:53.516Z,230.87
2019-03-06T20:38:24.143Z,259.57
2019-03-06T20:40:54.621Z,240.83
2019-03-06T20:43:25.289Z,314.15
2019-03-06T20:45:56.110Z,271.60
2019-03-06T20:48:28.658Z,251.07
2019-03-06T20:50:59.154Z,240.30
2019-03-06T20:53:31.973Z,234.93
2019-03-06T20:56:04.618Z,245.60
2019-03-06T20:58:36.873Z,227.47
2019-03-06T21:01:07.608Z,242.40
2019-03-06T21:03:38.252Z,233.23
2019-03-06T21:06:08.767Z,238.93
2019-03-06T21:08:39.514Z,237.53
2019-03-06T21:11:10.141Z,228.70
2019-03-06T21:13:40.570Z,235.93
2019-03-06T21:16:11.070Z,229.80
2019-03-06T21:18:41.640Z,238.57
2019-03-06T21:21:12.362Z,247.87
2019-03-06T21:23:42.993Z,246.17
2019-03-06T21:26:13.477Z,248.90
2019-03-06T21:28:44.134Z,269.50
2019-03-06T21:31:14.850Z,263.23
2019-03-06T21:33:45.459Z,255.03
2019-03-06T21:36:16.621Z,251.27
2019-03-06T21:38:47.311Z,247.50
2019-03-06T21:41:18.022Z,260.00
2019-03-06T21:43:48.550Z,266.13
2019-03-06T21:46:19.497Z,264.27
2019-03-06T21:48:50.054Z,238.83
2019-03-06T21:51:20.682Z,268.83
2019-03-06T21:53:51.298Z,245.20
2019-03-06T21:56:21.809Z,234.33
2019-03-06T21:58:52.437Z,230.67
2019-03-06T22:01:23.085Z,231.73
2019-03-06T22:03:53.670Z,234.87
2019-03-06T22:06:24.437Z,223.83
2019-03-06T22:08:55.083Z,250.67
2019-03-06T22:11:25.690Z,246.60
2019-03-06T22:13:56.245Z,216.53
2019-03-06T22:16:26.766Z,223.80
2019-03-06T22:18:57.286Z,242.40
2019-03-06T22:21:27.883Z,231.00
2019-03-06T22:23:59.013Z,227.90
2019-03-06T22:26:29.880Z,215.47
2019-03-06T22:29:00.558Z,243.07
2019-03-06T22:31:31.070Z,252.60
2019-03-06T22:34:01.685Z,271.23
2019-03-06T22:36:32.353Z,236.97
2019-03-06T22:39:03.551Z,221.77
2019-03-06T22:41:35.536Z,243.03
2019-03-06T22:44:06.165Z,233.30
2019-03-06T22:46:36.772Z,244.67
2019-03-06T22:49:08.454Z,227.97
2019-03-06T22:51:38.972Z,228.07
2019-03-06T22:54:09.680Z,237.93
2019-03-06T22:56:40.338Z,230.57
2019-03-06T22:59:10.977Z,205.00
2019-03-06T23:01:42.882Z,203.07
2019-03-06T23:04:13.684Z,224.37
2019-03-06T23:06:44.265Z,224.00
2019-03-06T23:09:15.148Z,218.30
2019-03-06T23:11:45.767Z,204.13
2019-03-06T23:14:16.377Z,204.53
2019-03-06T23:16:47.042Z,206.63
2019-03-06T23:19:17.965Z,180.47
2019-03-06T23:21:48.446Z,186.03
2019-03-06T23:24:18.972Z,190.60
2019-03-06T23:26:49.450Z,188.43
2019-03-06T23:29:21.715Z,159.70
2019-03-06T23:31:52.309Z,162.73
2019-03-06T23:34:22.981Z,150.77
2019-03-06T23:36:53.566Z,142.37
2019-03-06T23:39:24.144Z,143.17
2019-03-06T23:41:54.656Z,144.37
2019-03-06T23:44:28.061Z,137.47
2019-03-06T23:46:58.683Z,135.03
2019-03-06T23:49:43.463Z,140.40
2019-03-06T23:52:21.820Z,141.10
2019-03-06T23:54:53.533Z,124.33
2019-03-06T23:57:24.060Z,111.10
2019-03-06T23:59:54.779Z,115.90
